sensor_id;sensor_type;location;lat;lon;timestamp;temperature;humidity
21672;DHT22;10997;52.242;8.168;2023-01-10T00:04:49;5.70;99.90
21672;DHT22;10997;52.242;8.168;2023-01-10T00:09:50;5.60;99.90
21672;DHT22;10997;52.242;8.168;2023-01-10T00:14:50;5.50;99.90
21672;DHT22;10997;52.242;8.168;2023-01-10T00:19:51;5.40;99.90
21672;DHT22;10997;52.242;8.168;2023-01-10T00:24:52;5.50;99.90
21672;DHT22;10997;52.242;8.168;2023-01-10T00:29:53;5.50;99.90
21672;DHT22;10997;52.242;8.168;2023-01-10T00:34:54;5.50;99.90
21672;DHT22;10997;52.242;8.168;2023-01-10T00:39:54;5.50;99.90
21672;DHT22;10997;52.242;8.168;2023-01-10T00:44:55;5.50;99.90
21672;DHT22;10997;52.242;8.168;2023-01-10T00:49:55;5.50;99.90
21672;DHT22;10997;52.242;8.168;2023-01-10T00:54:56;5.60;99.90
21672;DHT22;10997;52.242;8.168;2023-01-10T00:59:56;5.60;99.90
21672;DHT22;10997;52.242;8.168;2023-01-10T01:04:57;5.60;99.90
21672;DHT22;10997;52.242;8.168;2023-01-10T01:09:58;5.70;99.90
21672;DHT22;10997;52.242;8.168;2023-01-10T01:15:17;5.60;99.90
21672;DHT22;10997;52.242;8.168;2023-01-10T01:20:18;5.60;99.90
21672;DHT22;10997;52.242;8.168;2023-01-10T01:25:20;5.60;99.90
21672;DHT22;10997;52.242;8.168;2023-01-10T01:30:20;5.60;99.90
21672;DHT22;10997;52.242;8.168;2023-01-10T01:35:21;5.60;99.90
21672;DHT22;10997;52.242;8.168;2023-01-10T01:40:22;5.60;99.90
21672;DHT22;10997;52.242;8.168;2023-01-10T01:50:39;5.70;99.90
21672;DHT22;10997;52.242;8.168;2023-01-10T01:55:42;5.70;99.90
21672;DHT22;10997;52.242;8.168;2023-01-10T02:00:44;5.70;99.90
21672;DHT22;10997;52.242;8.168;2023-01-10T02:05:45;5.70;99.90
21672;DHT22;10997;52.242;8.168;2023-01-10T02:11:09;5.70;99.90
21672;DHT22;10997;52.242;8.168;2023-01-10T02:16:11;5.70;99.90
21672;DHT22;10997;52.242;8.168;2023-01-10T02:26:49;5.80;99.90
21672;DHT22;10997;52.242;8.168;2023-01-10T02:32:07;5.70;99.90
21672;DHT22;10997;52.242;8.168;2023-01-10T02:37:13;5.70;99.90
21672;DHT22;10997;52.242;8.168;2023-01-10T02:42:46;5.70;99.90
21672;DHT22;10997;52.242;8.168;2023-01-10T02:47:52;5.70;99.90
21672;DHT22;10997;52.242;8.168;2023-01-10T02:52:58;5.70;99.90
21672;DHT22;10997;52.242;8.168;2023-01-10T02:58:15;5.70;99.90
21672;DHT22;10997;52.242;8.168;2023-01-10T03:08:34;5.70;99.90
21672;DHT22;10997;52.242;8.168;2023-01-10T03:13:55;5.60;99.90
21672;DHT22;10997;52.242;8.168;2023-01-10T03:19:03;5.60;99.90
21672;DHT22;10997;52.242;8.168;2023-01-10T03:35:34;5.60;99.90
21672;DHT22;10997;52.242;8.168;2023-01-10T03:41:07;5.60;99.90
21672;DHT22;10997;52.242;8.168;2023-01-10T03:46:22;5.50;99.90
21672;DHT22;10997;52.242;8.168;2023-01-10T03:51:26;5.50;99.90
21672;DHT22;10997;52.242;8.168;2023-01-10T03:56:27;5.50;99.90
21672;DHT22;10997;52.242;8.168;2023-01-10T04:01:28;5.50;99.90
21672;DHT22;10997;52.242;8.168;2023-01-10T04:06:29;5.50;99.90
21672;DHT22;10997;52.242;8.168;2023-01-10T04:11:29;5.50;99.90
21672;DHT22;10997;52.242;8.168;2023-01-10T04:16:30;5.40;99.90
21672;DHT22;10997;52.242;8.168;2023-01-10T04:21:31;5.50;99.90
21672;DHT22;10997;52.242;8.168;2023-01-10T04:26:31;5.40;99.90
21672;DHT22;10997;52.242;8.168;2023-01-10T04:31:32;5.30;99.90
21672;DHT22;10997;52.242;8.168;2023-01-10T04:36:32;5.30;99.90
21672;DHT22;10997;52.242;8.168;2023-01-10T04:41:34;5.20;99.90
21672;DHT22;10997;52.242;8.168;2023-01-10T04:46:34;5.10;99.90
21672;DHT22;10997;52.242;8.168;2023-01-10T04:51:35;5.10;99.90
21672;DHT22;10997;52.242;8.168;2023-01-10T04:56:35;5.20;99.90
21672;DHT22;10997;52.242;8.168;2023-01-10T05:01:36;5.10;99.90
21672;DHT22;10997;52.242;8.168;2023-01-10T05:06:38;5.20;99.90
21672;DHT22;10997;52.242;8.168;2023-01-10T05:11:39;5.30;99.90
21672;DHT22;10997;52.242;8.168;2023-01-10T05:16:40;5.30;99.90
21672;DHT22;10997;52.242;8.168;2023-01-10T05:21:40;5.30;99.90
21672;DHT22;10997;52.242;8.168;2023-01-10T05:26:41;5.30;99.90
21672;DHT22;10997;52.242;8.168;2023-01-10T05:31:42;5.30;99.90
21672;DHT22;10997;52.242;8.168;2023-01-10T05:36:42;5.30;99.90
21672;DHT22;10997;52.242;8.168;2023-01-10T05:41:43;5.30;99.90
21672;DHT22;10997;52.242;8.168;2023-01-10T05:46:43;5.30;99.90
21672;DHT22;10997;52.242;8.168;2023-01-10T05:51:44;5.20;99.90
21672;DHT22;10997;52.242;8.168;2023-01-10T05:56:45;5.10;99.90
21672;DHT22;10997;52.242;8.168;2023-01-10T06:01:45;5.10;99.90
21672;DHT22;10997;52.242;8.168;2023-01-10T06:06:46;5.20;99.90
21672;DHT22;10997;52.242;8.168;2023-01-10T06:11:46;5.20;99.90
21672;DHT22;10997;52.242;8.168;2023-01-10T06:16:47;5.20;99.90
21672;DHT22;10997;52.242;8.168;2023-01-10T06:21:48;5.10;99.90
21672;DHT22;10997;52.242;8.168;2023-01-10T06:26:48;5.10;99.90
21672;DHT22;10997;52.242;8.168;2023-01-10T06:31:49;5.10;99.90
21672;DHT22;10997;52.242;8.168;2023-01-10T06:36:49;5.20;99.90
21672;DHT22;10997;52.242;8.168;2023-01-10T06:41:50;5.20;99.90
21672;DHT22;10997;52.242;8.168;2023-01-10T06:46:50;5.20;99.90
21672;DHT22;10997;52.242;8.168;2023-01-10T06:51:51;5.30;99.90
21672;DHT22;10997;52.242;8.168;2023-01-10T06:56:51;5.30;99.90
21672;DHT22;10997;52.242;8.168;2023-01-10T07:01:52;5.30;99.90
21672;DHT22;10997;52.242;8.168;2023-01-10T07:06:53;5.30;99.90
21672;DHT22;10997;52.242;8.168;2023-01-10T07:11:54;5.40;99.90
21672;DHT22;10997;52.242;8.168;2023-01-10T07:16:54;5.40;99.90
21672;DHT22;10997;52.242;8.168;2023-01-10T07:21:55;5.40;99.90
21672;DHT22;10997;52.242;8.168;2023-01-10T07:26:55;5.40;99.90
21672;DHT22;10997;52.242;8.168;2023-01-10T07:31:56;5.40;99.90
21672;DHT22;10997;52.242;8.168;2023-01-10T07:36:57;5.50;99.90
21672;DHT22;10997;52.242;8.168;2023-01-10T07:41:57;5.50;99.90
21672;DHT22;10997;52.242;8.168;2023-01-10T07:46:59;5.50;99.90
21672;DHT22;10997;52.242;8.168;2023-01-10T07:51:59;5.40;99.90
21672;DHT22;10997;52.242;8.168;2023-01-10T07:57:00;5.40;99.90
21672;DHT22;10997;52.242;8.168;2023-01-10T08:02:01;5.40;99.90
21672;DHT22;10997;52.242;8.168;2023-01-10T08:07:02;5.40;99.90
21672;DHT22;10997;52.242;8.168;2023-01-10T08:12:03;5.40;99.90
21672;DHT22;10997;52.242;8.168;2023-01-10T08:17:03;5.50;99.90
21672;DHT22;10997;52.242;8.168;2023-01-10T08:22:04;5.50;99.90
21672;DHT22;10997;52.242;8.168;2023-01-10T08:27:04;5.50;99.90
21672;DHT22;10997;52.242;8.168;2023-01-10T08:32:05;5.50;99.90
21672;DHT22;10997;52.242;8.168;2023-01-10T08:37:05;5.50;99.90
21672;DHT22;10997;52.242;8.168;2023-01-10T08:42:06;5.50;99.90
21672;DHT22;10997;52.242;8.168;2023-01-10T08:47:07;5.50;99.90
21672;DHT22;10997;52.242;8.168;2023-01-10T08:52:08;5.60;99.90
21672;DHT22;10997;52.242;8.168;2023-01-10T08:57:09;5.60;99.90
21672;DHT22;10997;52.242;8.168;2023-01-10T09:02:13;5.60;99.90
21672;DHT22;10997;52.242;8.168;2023-01-10T09:07:13;5.60;99.90
21672;DHT22;10997;52.242;8.168;2023-01-10T09:12:14;5.60;99.90
21672;DHT22;10997;52.242;8.168;2023-01-10T09:17:33;5.60;99.90
21672;DHT22;10997;52.242;8.168;2023-01-10T09:22:34;5.60;99.90
21672;DHT22;10997;52.242;8.168;2023-01-10T09:27:35;5.60;99.90
21672;DHT22;10997;52.242;8.168;2023-01-10T09:32:36;5.70;99.90
21672;DHT22;10997;52.242;8.168;2023-01-10T09:37:36;5.70;99.90
21672;DHT22;10997;52.242;8.168;2023-01-10T09:48:07;5.70;99.90
21672;DHT22;10997;52.242;8.168;2023-01-10T09:53:20;5.70;99.90
21672;DHT22;10997;52.242;8.168;2023-01-10T09:58:25;5.80;99.90
21672;DHT22;10997;52.242;8.168;2023-01-10T10:08:51;5.90;99.90
21672;DHT22;10997;52.242;8.168;2023-01-10T10:14:09;6.00;99.90
21672;DHT22;10997;52.242;8.168;2023-01-10T10:24:41;6.10;99.90
21672;DHT22;10997;52.242;8.168;2023-01-10T10:40:38;6.10;99.90
21672;DHT22;10997;52.242;8.168;2023-01-10T10:45:46;6.10;99.90
21672;DHT22;10997;52.242;8.168;2023-01-10T10:51:09;6.10;99.90
21672;DHT22;10997;52.242;8.168;2023-01-10T10:56:15;6.10;99.90
21672;DHT22;10997;52.242;8.168;2023-01-10T11:01:18;6.00;99.90
21672;DHT22;10997;52.242;8.168;2023-01-10T11:06:19;6.00;99.90
21672;DHT22;10997;52.242;8.168;2023-01-10T11:11:39;6.00;99.90
21672;DHT22;10997;52.242;8.168;2023-01-10T11:16:43;6.00;99.90
21672;DHT22;10997;52.242;8.168;2023-01-10T11:21:47;6.10;99.90
21672;DHT22;10997;52.242;8.168;2023-01-10T11:26:48;6.20;99.90
21672;DHT22;10997;52.242;8.168;2023-01-10T11:31:53;6.30;99.90
21672;DHT22;10997;52.242;8.168;2023-01-10T11:37:16;6.40;99.90
21672;DHT22;10997;52.242;8.168;2023-01-10T11:47:32;6.70;99.90
21672;DHT22;10997;52.242;8.168;2023-01-10T11:52:33;6.80;99.90
21672;DHT22;10997;52.242;8.168;2023-01-10T11:57:34;6.80;99.90
21672;DHT22;10997;52.242;8.168;2023-01-10T12:02:36;6.80;99.90
21672;DHT22;10997;52.242;8.168;2023-01-10T12:13:15;6.90;99.90
21672;DHT22;10997;52.242;8.168;2023-01-10T12:18:17;6.90;99.90
21672;DHT22;10997;52.242;8.168;2023-01-10T12:23:21;6.90;99.90
21672;DHT22;10997;52.242;8.168;2023-01-10T12:28:28;7.00;99.90
21672;DHT22;10997;52.242;8.168;2023-01-10T12:33:34;7.00;99.90
21672;DHT22;10997;52.242;8.168;2023-01-10T12:38:41;7.10;99.90
21672;DHT22;10997;52.242;8.168;2023-01-10T12:44:02;7.00;99.90
21672;DHT22;10997;52.242;8.168;2023-01-10T12:49:33;7.10;99.90
21672;DHT22;10997;52.242;8.168;2023-01-10T12:54:35;7.00;99.90
21672;DHT22;10997;52.242;8.168;2023-01-10T12:59:40;7.00;99.90
21672;DHT22;10997;52.242;8.168;2023-01-10T13:04:42;7.00;99.90
21672;DHT22;10997;52.242;8.168;2023-01-10T13:09:46;6.90;99.90
21672;DHT22;10997;52.242;8.168;2023-01-10T13:14:53;6.90;99.90
21672;DHT22;10997;52.242;8.168;2023-01-10T13:25:27;6.80;99.90
21672;DHT22;10997;52.242;8.168;2023-01-10T13:30:34;6.80;99.90
21672;DHT22;10997;52.242;8.168;2023-01-10T13:35:42;6.80;99.90
21672;DHT22;10997;52.242;8.168;2023-01-10T13:40:59;6.80;99.90
21672;DHT22;10997;52.242;8.168;2023-01-10T13:51:20;6.80;99.90
21672;DHT22;10997;52.242;8.168;2023-01-10T13:56:41;6.80;99.90
21672;DHT22;10997;52.242;8.168;2023-01-10T14:01:43;6.80;99.90
21672;DHT22;10997;52.242;8.168;2023-01-10T14:12:26;6.70;99.90
21672;DHT22;10997;52.242;8.168;2023-01-10T14:17:32;6.70;99.90
21672;DHT22;10997;52.242;8.168;2023-01-10T14:22:36;6.70;99.90
21672;DHT22;10997;52.242;8.168;2023-01-10T14:27:49;6.70;99.90
21672;DHT22;10997;52.242;8.168;2023-01-10T14:32:59;6.70;99.90
21672;DHT22;10997;52.242;8.168;2023-01-10T14:38:01;6.60;99.90
21672;DHT22;10997;52.242;8.168;2023-01-10T14:43:07;6.60;99.90
21672;DHT22;10997;52.242;8.168;2023-01-10T14:48:32;6.60;99.90
21672;DHT22;10997;52.242;8.168;2023-01-10T14:53:33;6.60;99.90
21672;DHT22;10997;52.242;8.168;2023-01-10T14:58:34;6.60;99.90
21672;DHT22;10997;52.242;8.168;2023-01-10T15:03:35;6.50;99.90
21672;DHT22;10997;52.242;8.168;2023-01-10T15:08:38;6.50;99.90
21672;DHT22;10997;52.242;8.168;2023-01-10T15:13:52;6.50;99.90
21672;DHT22;10997;52.242;8.168;2023-01-10T15:18:55;6.60;99.90
21672;DHT22;10997;52.242;8.168;2023-01-10T15:23:57;6.50;99.90
21672;DHT22;10997;52.242;8.168;2023-01-10T15:34:07;6.50;99.90
21672;DHT22;10997;52.242;8.168;2023-01-10T15:39:23;6.50;99.90
21672;DHT22;10997;52.242;8.168;2023-01-10T15:44:39;6.50;99.90
21672;DHT22;10997;52.242;8.168;2023-01-10T15:49:51;6.50;99.90
21672;DHT22;10997;52.242;8.168;2023-01-10T15:54:52;6.50;99.90
21672;DHT22;10997;52.242;8.168;2023-01-10T15:59:56;6.50;99.90
21672;DHT22;10997;52.242;8.168;2023-01-10T16:05:09;6.50;99.90
21672;DHT22;10997;52.242;8.168;2023-01-10T16:10:23;6.50;99.90
21672;DHT22;10997;52.242;8.168;2023-01-10T16:15:30;6.50;99.90
21672;DHT22;10997;52.242;8.168;2023-01-10T16:20:36;6.50;99.90
21672;DHT22;10997;52.242;8.168;2023-01-10T16:25:39;6.50;99.90
21672;DHT22;10997;52.242;8.168;2023-01-10T16:30:44;6.50;99.90
21672;DHT22;10997;52.242;8.168;2023-01-10T16:35:47;6.50;99.90
21672;DHT22;10997;52.242;8.168;2023-01-10T16:40:52;6.50;99.90
21672;DHT22;10997;52.242;8.168;2023-01-10T16:45:57;6.60;99.90
21672;DHT22;10997;52.242;8.168;2023-01-10T16:51:20;6.60;99.90
21672;DHT22;10997;52.242;8.168;2023-01-10T16:56:24;6.60;99.90
21672;DHT22;10997;52.242;8.168;2023-01-10T17:01:28;6.60;99.90
21672;DHT22;10997;52.242;8.168;2023-01-10T17:06:29;6.60;99.90
21672;DHT22;10997;52.242;8.168;2023-01-10T17:11:33;6.60;99.90
21672;DHT22;10997;52.242;8.168;2023-01-10T17:16:34;6.60;99.90
21672;DHT22;10997;52.242;8.168;2023-01-10T17:21:35;6.50;99.90
21672;DHT22;10997;52.242;8.168;2023-01-10T17:26:35;6.40;99.90
21672;DHT22;10997;52.242;8.168;2023-01-10T17:31:36;6.40;99.90
21672;DHT22;10997;52.242;8.168;2023-01-10T17:36:36;6.30;99.90
21672;DHT22;10997;52.242;8.168;2023-01-10T17:41:39;6.30;99.90
21672;DHT22;10997;52.242;8.168;2023-01-10T17:46:39;6.30;99.90
21672;DHT22;10997;52.242;8.168;2023-01-10T17:51:40;6.30;99.90
21672;DHT22;10997;52.242;8.168;2023-01-10T17:56:41;6.30;99.90
21672;DHT22;10997;52.242;8.168;2023-01-10T18:01:41;6.30;99.90
21672;DHT22;10997;52.242;8.168;2023-01-10T18:06:42;6.30;99.90
21672;DHT22;10997;52.242;8.168;2023-01-10T18:11:42;6.30;99.90
21672;DHT22;10997;52.242;8.168;2023-01-10T18:16:43;6.40;99.90
21672;DHT22;10997;52.242;8.168;2023-01-10T18:21:47;6.40;99.90
21672;DHT22;10997;52.242;8.168;2023-01-10T18:26:48;6.30;99.90
21672;DHT22;10997;52.242;8.168;2023-01-10T18:31:48;6.20;99.90
21672;DHT22;10997;52.242;8.168;2023-01-10T18:36:49;6.20;99.90
21672;DHT22;10997;52.242;8.168;2023-01-10T18:41:50;6.10;99.90
21672;DHT22;10997;52.242;8.168;2023-01-10T18:46:50;6.00;99.90
21672;DHT22;10997;52.242;8.168;2023-01-10T18:51:51;6.00;99.90
21672;DHT22;10997;52.242;8.168;2023-01-10T18:56:51;5.90;99.90
21672;DHT22;10997;52.242;8.168;2023-01-10T19:01:53;5.90;99.90
21672;DHT22;10997;52.242;8.168;2023-01-10T19:06:54;5.80;99.90
21672;DHT22;10997;52.242;8.168;2023-01-10T19:11:54;5.80;99.90
21672;DHT22;10997;52.242;8.168;2023-01-10T19:16:55;5.80;99.90
21672;DHT22;10997;52.242;8.168;2023-01-10T19:21:55;5.70;99.90
21672;DHT22;10997;52.242;8.168;2023-01-10T19:26:56;5.70;99.90
21672;DHT22;10997;52.242;8.168;2023-01-10T19:31:57;5.70;99.90
21672;DHT22;10997;52.242;8.168;2023-01-10T19:36:58;5.70;99.90
21672;DHT22;10997;52.242;8.168;2023-01-10T19:41:58;5.70;99.90
21672;DHT22;10997;52.242;8.168;2023-01-10T19:46:59;5.70;99.90
21672;DHT22;10997;52.242;8.168;2023-01-10T19:51:59;5.60;99.90
21672;DHT22;10997;52.242;8.168;2023-01-10T19:57:00;5.60;99.90
21672;DHT22;10997;52.242;8.168;2023-01-10T20:02:01;5.70;99.90
21672;DHT22;10997;52.242;8.168;2023-01-10T20:07:01;5.70;99.90
21672;DHT22;10997;52.242;8.168;2023-01-10T20:12:02;5.70;99.90
21672;DHT22;10997;52.242;8.168;2023-01-10T20:17:03;5.70;99.90
21672;DHT22;10997;52.242;8.168;2023-01-10T20:22:04;5.70;99.90
21672;DHT22;10997;52.242;8.168;2023-01-10T20:27:04;5.70;99.90
21672;DHT22;10997;52.242;8.168;2023-01-10T20:32:08;5.60;99.90
21672;DHT22;10997;52.242;8.168;2023-01-10T20:37:09;5.60;99.90
21672;DHT22;10997;52.242;8.168;2023-01-10T20:42:09;5.70;99.90
21672;DHT22;10997;52.242;8.168;2023-01-10T20:47:10;5.70;99.90
21672;DHT22;10997;52.242;8.168;2023-01-10T20:52:10;5.60;99.90
21672;DHT22;10997;52.242;8.168;2023-01-10T20:57:11;5.70;99.90
21672;DHT22;10997;52.242;8.168;2023-01-10T21:02:12;5.70;99.90
21672;DHT22;10997;52.242;8.168;2023-01-10T21:07:12;5.70;99.90
21672;DHT22;10997;52.242;8.168;2023-01-10T21:12:13;5.70;99.90
21672;DHT22;10997;52.242;8.168;2023-01-10T21:17:16;5.80;99.90
21672;DHT22;10997;52.242;8.168;2023-01-10T21:22:17;5.80;99.90
21672;DHT22;10997;52.242;8.168;2023-01-10T21:27:18;5.80;99.90
21672;DHT22;10997;52.242;8.168;2023-01-10T21:32:18;5.90;99.90
21672;DHT22;10997;52.242;8.168;2023-01-10T21:37:19;5.90;99.90
21672;DHT22;10997;52.242;8.168;2023-01-10T21:42:19;5.90;99.90
21672;DHT22;10997;52.242;8.168;2023-01-10T21:47:38;5.90;99.90
21672;DHT22;10997;52.242;8.168;2023-01-10T21:52:39;5.90;99.90
21672;DHT22;10997;52.242;8.168;2023-01-10T21:57:41;5.90;99.90
21672;DHT22;10997;52.242;8.168;2023-01-10T22:02:42;5.90;99.90
21672;DHT22;10997;52.242;8.168;2023-01-10T22:07:43;5.90;99.90
21672;DHT22;10997;52.242;8.168;2023-01-10T22:12:45;5.90;99.90
21672;DHT22;10997;52.242;8.168;2023-01-10T22:17:45;6.00;99.90
21672;DHT22;10997;52.242;8.168;2023-01-10T22:22:47;6.00;99.90
21672;DHT22;10997;52.242;8.168;2023-01-10T22:27:48;6.10;99.90
21672;DHT22;10997;52.242;8.168;2023-01-10T22:32:48;6.20;99.90
21672;DHT22;10997;52.242;8.168;2023-01-10T22:37:54;6.20;99.90
21672;DHT22;10997;52.242;8.168;2023-01-10T22:42:55;6.20;99.90
21672;DHT22;10997;52.242;8.168;2023-01-10T22:47:56;6.30;99.90
21672;DHT22;10997;52.242;8.168;2023-01-10T22:52:57;6.30;99.90
21672;DHT22;10997;52.242;8.168;2023-01-10T22:57:57;6.30;99.90
21672;DHT22;10997;52.242;8.168;2023-01-10T23:02:58;6.40;99.90
21672;DHT22;10997;52.242;8.168;2023-01-10T23:07:59;6.50;99.90
21672;DHT22;10997;52.242;8.168;2023-01-10T23:12:59;6.50;99.90
21672;DHT22;10997;52.242;8.168;2023-01-10T23:18:01;6.60;99.90
21672;DHT22;10997;52.242;8.168;2023-01-10T23:23:02;6.60;99.90
21672;DHT22;10997;52.242;8.168;2023-01-10T23:28:03;6.60;99.90
21672;DHT22;10997;52.242;8.168;2023-01-10T23:33:04;6.60;99.90
21672;DHT22;10997;52.242;8.168;2023-01-10T23:38:05;6.60;99.90
21672;DHT22;10997;52.242;8.168;2023-01-10T23:43:05;6.60;99.90
21672;DHT22;10997;52.242;8.168;2023-01-10T23:48:06;6.60;99.90
21672;DHT22;10997;52.242;8.168;2023-01-10T23:53:07;6.60;99.90
21672;DHT22;10997;52.242;8.168;2023-01-10T23:58:07;6.70;99.90
